Time;durP1;ratioP1;P1;durP2;ratioP2;P2;SDS_P1;SDS_P2;PMS_P1;PMS_P2;Temp;Humidity;BMP_temperature;BMP_pressure;BME280_temperature;BME280_humidity;BME280_pressure;Samples;Min_cycle;Max_cycle;Signal;HPM_P1;HPM_P2
2022/06/19 00:01:34;;;;;;;18.50;10.90;;;;;;;16.37;100.00;99535.03;4992477;28;20666;-87
2022/06/19 00:04:03;;;;;;;15.30;10.97;;;;;;;16.67;100.00;99566.44;4993851;28;20174;-85
2022/06/19 00:06:28;;;;;;;17.87;11.20;;;;;;;15.43;100.00;99337.91;4994134;28;20642;-85
2022/06/19 00:08:54;;;;;;;19.73;11.37;;;;;;;17.38;100.00;99654.06;4992577;28;20663;-85
2022/06/19 00:11:21;;;;;;;16.67;11.53;;;;;;;15.86;100.00;99395.09;4993744;28;20629;-85
2022/06/19 00:13:47;;;;;;;18.43;11.50;;;;;;;17.34;100.00;99654.81;4993845;28;20600;-85
2022/06/19 00:16:13;;;;;;;20.60;12.10;;;;;;;16.97;100.00;99663.41;4993961;28;20203;-85
2022/06/19 00:18:39;;;;;;;18.83;12.20;;;;;;;14.22;100.00;99243.94;4993564;28;20174;-85
2022/06/19 00:21:05;;;;;;;19.67;12.13;;;;;;;14.55;100.00;99307.66;4993744;28;20175;-85
2022/06/19 00:23:31;;;;;;;17.90;12.50;;;;;;;13.42;100.00;99072.16;4993676;28;20195;-85
2022/06/19 00:25:56;;;;;;;21.07;12.17;;;;;;;16.38;100.00;99522.28;4993964;28;20167;-87
2022/06/19 00:28:23;;;;;;;18.70;12.33;;;;;;;17.06;100.00;99650.78;4993683;28;20167;-85
2022/06/19 00:30:48;;;;;;;19.23;12.23;;;;;;;15.40;100.00;99337.84;4993464;28;20225;-85
2022/06/19 00:33:14;;;;;;;20.93;12.37;;;;;;;16.00;100.00;99514.56;4992569;28;20164;-86
2022/06/19 00:35:39;;;;;;;19.97;12.83;;;;;;;16.55;100.00;99658.16;4993293;28;20256;-85
2022/06/19 00:38:05;;;;;;;19.23;12.67;;;;;;;13.45;100.00;99117.13;4975728;28;20242;-85
2022/06/19 00:40:31;;;;;;;17.67;12.70;;;;;;;16.60;100.00;99637.81;4993095;28;20303;-84
2022/06/19 00:42:56;;;;;;;21.20;13.20;;;;;;;15.15;100.00;99342.34;4992860;28;20171;-84
2022/06/19 00:45:56;;;;;;;19.13;13.40;;;;;;;16.99;100.00;99642.16;4992899;28;20159;-85
2022/06/19 00:48:28;;;;;;;19.20;12.27;;;;;;;16.81;100.00;99635.75;4895122;29;20209;-84
2022/06/19 00:50:54;;;;;;;18.30;13.07;;;;;;;15.75;100.00;99465.47;4895007;29;20226;-84
2022/06/19 00:53:42;;;;;;;20.27;13.50;;;;;;;13.10;100.00;99028.88;4895196;29;20576;-84
2022/06/19 00:56:15;;;;;;;19.93;12.47;;;;;;;15.13;100.00;99387.38;4895022;29;20199;-85
2022/06/19 00:58:41;;;;;;;21.83;12.77;;;;;;;15.61;100.00;99489.78;4894692;29;20194;-86
2022/06/19 01:01:11;;;;;;;19.00;12.50;;;;;;;15.81;100.00;99500.50;4894992;29;20175;-85
2022/06/19 01:03:51;;;;;;;18.10;12.07;;;;;;;15.48;100.00;99413.75;4894995;29;20238;-85
2022/06/19 01:06:17;;;;;;;23.20;12.03;;;;;;;16.85;100.00;99628.19;4894939;29;20195;-84
2022/06/19 01:08:42;;;;;;;15.03;11.43;;;;;;;16.61;100.00;99581.63;4878097;29;20182;-85
2022/06/19 01:11:08;;;;;;;16.73;11.50;;;;;;;15.46;100.00;99420.53;4894641;29;20170;-84
2022/06/19 01:13:34;;;;;;;18.03;11.80;;;;;;;15.95;100.00;99511.91;4894885;29;20178;-85
2022/06/19 01:16:01;;;;;;;17.33;11.70;;;;;;;14.12;100.00;99209.72;4894748;29;20652;-85
2022/06/19 01:18:31;;;;;;;20.30;12.60;;;;;;;15.85;100.00;99504.81;4897000;29;20282;-86
2022/06/19 01:21:22;;;;;;;19.03;11.93;;;;;;;16.28;100.00;99578.25;4895712;29;20179;-85
2022/06/19 01:24:00;;;;;;;21.23;12.33;;;;;;;16.05;100.00;99525.75;4876358;29;20208;-85
2022/06/19 01:26:27;;;;;;;20.83;11.90;;;;;;;16.78;100.00;99639.13;4951473;29;20590;-85
2022/06/19 01:28:56;;;;;;;18.57;11.73;;;;;;;15.07;100.00;99345.53;4935410;29;20192;-86
2022/06/19 01:31:30;;;;;;;18.80;11.43;;;;;;;16.94;100.00;99643.75;4952137;29;20192;-85
2022/06/19 01:36:57;;;;;;;16.70;11.23;;;;;;;16.19;100.00;99506.50;4952011;29;20676;-85
2022/06/19 01:39:24;;;;;;;15.90;11.20;;;;;;;17.02;100.00;99647.31;4952462;29;20173;-85
2022/06/19 01:41:49;;;;;;;15.17;11.47;;;;;;;17.05;100.00;99654.19;4951832;29;20592;-85
2022/06/19 01:44:15;;;;;;;18.73;11.20;;;;;;;17.17;100.00;99646.78;4952625;28;20183;-86
2022/06/19 01:46:40;;;;;;;16.67;11.23;;;;;;;17.08;100.00;99650.00;4955985;29;20252;-86
2022/06/19 01:49:06;;;;;;;18.77;12.37;;;;;;;17.17;100.00;99661.28;4955649;29;20550;-85
2022/06/19 01:51:32;;;;;;;46.03;34.83;;;;;;;16.76;100.00;99584.50;4955385;29;20184;-86
2022/06/19 01:54:00;;;;;;;109.17;82.10;;;;;;;17.23;100.00;99656.28;4955909;29;20189;-85
2022/06/19 01:56:26;;;;;;;223.93;155.03;;;;;;;15.53;100.00;99384.13;4955520;29;20380;-84
2022/06/19 01:58:55;;;;;;;253.67;165.77;;;;;;;17.05;100.00;99660.19;4955767;29;20259;-84
2022/06/19 02:01:21;;;;;;;374.20;258.73;;;;;;;16.82;100.00;99635.78;4985624;28;20278;-84
2022/06/19 02:03:54;;;;;;;279.70;175.43;;;;;;;15.65;100.00;99420.16;4996266;28;20221;-84
2022/06/19 02:06:25;;;;;;;44.80;28.67;;;;;;;16.62;100.00;99659.19;4996485;28;20183;-85
2022/06/19 02:08:51;;;;;;;26.20;16.07;;;;;;;14.55;100.00;99290.72;5004032;28;20159;-84
2022/06/19 02:11:17;;;;;;;27.30;14.70;;;;;;;15.92;100.00;99573.97;5003516;28;20164;-84
2022/06/19 02:13:44;;;;;;;27.93;15.80;;;;;;;14.89;100.00;99380.78;4996370;28;20164;-85
2022/06/19 02:16:14;;;;;;;24.63;14.50;;;;;;;14.86;100.00;99391.72;4996158;28;20211;-85
2022/06/19 02:18:42;;;;;;;22.37;14.10;;;;;;;16.28;100.00;99652.34;4996173;28;20190;-85
2022/06/19 02:21:15;;;;;;;18.97;13.80;;;;;;;15.38;100.00;99529.16;4996117;28;20172;-85
2022/06/19 02:23:41;;;;;;;20.03;13.30;;;;;;;14.46;100.00;99376.19;4996468;28;20159;-85
2022/06/19 02:26:09;;;;;;;21.63;13.63;;;;;;;16.08;100.00;99656.94;4978575;28;20180;-85
2022/06/19 02:28:37;;;;;;;23.67;14.27;;;;;;;15.36;100.00;99595.41;4995972;28;20167;-86
2022/06/19 02:31:06;;;;;;;23.13;13.87;;;;;;;15.62;100.00;99676.97;5002688;28;20167;-85
2022/06/19 02:33:36;;;;;;;22.60;14.07;;;;;;;14.49;100.00;99448.47;4995704;28;20167;-86
2022/06/19 02:36:41;;;;;;;23.63;14.43;;;;;;;15.68;100.00;99609.09;4995459;28;20629;-84
2022/06/19 02:39:18;;;;;;;27.53;13.60;;;;;;;16.16;100.00;99646.91;4977833;28;20757;-86
2022/06/19 02:41:53;;;;;;;21.67;13.33;;;;;;;14.73;100.00;99390.56;4996050;28;20171;-86
2022/06/19 02:44:18;;;;;;;23.07;15.10;;;;;;;15.33;100.00;99479.66;4995310;28;20265;-85
2022/06/19 02:46:44;;;;;;;28.37;17.93;;;;;;;15.32;100.00;99467.75;4995898;28;20246;-84
2022/06/19 02:49:09;;;;;;;25.30;15.97;;;;;;;14.85;100.00;99379.81;4995919;28;20160;-85
2022/06/19 02:51:34;;;;;;;20.77;13.70;;;;;;;13.10;100.00;99092.41;4995258;28;20164;-86
2022/06/19 02:54:00;;;;;;;22.63;14.30;;;;;;;16.55;100.00;99677.72;4995359;28;20635;-86
2022/06/19 02:56:25;;;;;;;23.03;14.27;;;;;;;14.05;100.00;99276.56;4994488;28;20195;-85
2022/06/19 02:58:51;;;;;;;21.57;14.73;;;;;;;15.90;100.00;99580.72;4995150;28;20618;-85
2022/06/19 03:01:16;;;;;;;20.73;13.83;;;;;;;14.96;100.00;99415.78;4994044;28;20175;-86
2022/06/19 03:03:42;;;;;;;20.50;13.73;;;;;;;14.80;100.00;99409.44;4976065;28;20220;-86
2022/06/19 03:06:07;;;;;;;21.63;13.43;;;;;;;14.07;100.00;99290.19;4975526;28;20156;-86
2022/06/19 03:08:33;;;;;;;20.47;13.30;;;;;;;16.14;100.00;99658.78;4975379;28;20243;-86
2022/06/19 03:10:58;;;;;;;18.23;13.63;;;;;;;14.65;100.00;99414.09;4975495;28;20547;-85
2022/06/19 03:13:25;;;;;;;22.43;13.80;;;;;;;15.40;100.00;99530.03;4975834;28;20171;-85
2022/06/19 03:16:07;;;;;;;23.77;13.47;;;;;;;15.67;100.00;99563.09;4977300;28;20239;-85
2022/06/19 03:18:33;;;;;;;19.20;13.33;;;;;;;15.14;100.00;99451.94;4977584;28;20247;-86
2022/06/19 03:20:59;;;;;;;19.00;13.53;;;;;;;16.51;100.00;99652.06;4977840;28;20578;-87
2022/06/19 03:23:24;;;;;;;18.77;13.20;;;;;;;14.48;100.00;99321.91;4978646;28;20164;-88
2022/06/19 03:25:50;;;;;;;23.47;13.73;;;;;;;14.33;100.00;99346.13;4961069;28;20243;-88
2022/06/19 03:28:15;;;;;;;23.07;13.37;;;;;;;15.40;100.00;99529.16;4978840;28;20244;-88
2022/06/19 03:30:40;;;;;;;19.33;13.37;;;;;;;13.38;100.00;99196.59;4978573;28;20168;-88
2022/06/19 03:33:06;;;;;;;21.00;13.40;;;;;;;13.70;100.00;99241.66;4977936;28;20215;-88
2022/06/19 03:35:32;;;;;;;20.33;12.60;;;;;;;14.54;100.00;99370.50;4977946;28;20195;-89
2022/06/19 03:37:58;;;;;;;19.43;12.87;;;;;;;16.36;100.00;99663.63;4977908;28;20219;-89
2022/06/19 03:40:23;;;;;;;21.63;12.67;;;;;;;14.97;100.00;99438.75;4978193;28;20525;-89
2022/06/19 03:42:48;;;;;;;18.67;12.20;;;;;;;14.25;100.00;99300.03;4958685;28;20263;-90
2022/06/19 03:45:14;;;;;;;19.63;12.23;;;;;;;14.10;100.00;99279.22;4976258;28;20167;-88
2022/06/19 03:47:40;;;;;;;23.50;11.77;;;;;;;16.36;100.00;99686.63;4975792;28;20179;-88
2022/06/19 03:50:06;;;;;;;19.77;12.57;;;;;;;14.68;100.00;99369.19;4976627;28;20183;-88
2022/06/19 03:52:32;;;;;;;18.83;12.37;;;;;;;12.90;100.00;99085.03;4976239;28;20174;-88
2022/06/19 03:54:57;;;;;;;17.27;11.93;;;;;;;13.55;100.00;99181.00;4975770;28;20279;-89
2022/06/19 03:57:22;;;;;;;19.97;12.40;;;;;;;16.65;100.00;99684.78;4976838;28;20215;-84
2022/06/19 03:59:48;;;;;;;18.80;12.10;;;;;;;13.80;100.00;99179.13;4977244;28;20184;-83
2022/06/19 04:02:14;;;;;;;17.17;12.10;;;;;;;15.25;100.00;99441.22;4976080;28;20282;-84
2022/06/19 04:04:39;;;;;;;19.23;12.50;;;;;;;14.31;100.00;99277.25;4975943;28;20164;-84
2022/06/19 04:07:05;;;;;;;18.27;12.40;;;;;;;14.35;100.00;99252.78;4975440;28;20255;-85
2022/06/19 04:09:31;;;;;;;21.33;13.10;;;;;;;16.49;100.00;99576.19;4958068;28;20183;-84
2022/06/19 04:11:56;;;;;;;17.93;12.67;;;;;;;15.49;100.00;99361.06;4976138;28;20169;-83
2022/06/19 04:14:22;;;;;;;19.23;13.17;;;;;;;16.89;100.00;99537.06;4976875;28;20262;-81
2022/06/19 04:16:47;;;;;;;20.17;13.67;;;;;;;13.80;100.00;99029.91;4979178;28;20684;-83
2022/06/19 04:19:13;;;;;;;18.60;13.27;;;;;;;17.83;100.00;99688.25;4976189;28;20172;-84
2022/06/19 04:21:44;;;;;;;18.53;13.83;;;;;;;18.04;100.00;99691.25;4975798;28;20179;-83
2022/06/19 04:24:12;;;;;;;20.10;13.80;;;;;;;16.73;100.00;99546.06;4975726;28;20171;-83
2022/06/19 04:26:38;;;;;;;16.83;13.20;;;;;;;17.54;100.00;99689.41;4974513;28;20259;-83
2022/06/19 04:29:05;;;;;;;18.10;13.73;;;;;;;17.40;100.00;99613.97;4975735;28;20575;-84
2022/06/19 04:31:31;;;;;;;18.73;13.60;;;;;;;18.03;100.00;99694.66;4975527;28;20235;-83
2022/06/19 04:33:57;;;;;;;16.33;13.27;;;;;;;17.20;100.00;99487.34;4975698;28;20263;-83
2022/06/19 04:36:24;;;;;;;18.67;13.27;;;;;;;18.33;100.00;99665.25;4975941;28;20668;-83
2022/06/19 04:38:51;;;;;;;18.67;13.33;;;;;;;17.37;100.00;99497.06;4974993;28;20168;-84
2022/06/19 04:41:23;;;;;;;17.03;13.37;;;;;;;18.80;100.00;99697.69;4975437;28;20263;-82
2022/06/19 04:43:50;;;;;;;17.77;14.07;;;;;;;18.87;100.00;99688.41;4974290;28;20164;-83
2022/06/19 04:46:16;;;;;;;18.13;12.70;;;;;;;18.37;100.00;99559.38;4974188;28;20242;-83
2022/06/19 04:48:41;;;;;;;18.37;13.17;;;;;;;19.18;100.00;99693.13;4973341;28;20633;-85
2022/06/19 04:51:07;;;;;;;16.80;13.20;;;;;;;19.40;100.00;99698.59;4972425;28;20188;-84
2022/06/19 04:53:32;;;;;;;16.87;13.13;;;;;;;18.87;100.00;99686.69;4973675;28;20166;-83
2022/06/19 04:55:59;;;;;;;19.47;13.73;;;;;;;18.78;100.00;99674.59;4973439;28;20569;-85
2022/06/19 04:58:25;;;;;;;16.63;13.43;;;;;;;18.89;100.00;99684.16;4973737;28;20671;-83
2022/06/19 05:00:52;;;;;;;18.10;13.20;;;;;;;18.79;100.00;99685.69;4981211;28;20176;-84
2022/06/19 05:03:18;;;;;;;16.50;13.07;;;;;;;18.90;100.00;99693.59;4975776;28;20231;-84
2022/06/19 05:05:44;;;;;;;15.73;12.50;;;;;;;18.67;100.00;99595.75;4974817;28;20160;-84
2022/06/19 05:08:10;;;;;;;16.50;13.03;;;;;;;19.29;100.00;99704.41;4977765;28;20648;-83
2022/06/19 05:10:35;;;;;;;14.27;11.53;;;;;;;18.91;100.00;99701.28;4974650;28;20168;-84
2022/06/19 05:13:02;;;;;;;14.13;11.80;;;;;;;17.94;100.00;99596.25;4975685;28;20168;-83
2022/06/19 05:15:28;;;;;;;14.50;11.80;;;;;;;17.97;100.00;99581.78;4975857;28;20191;-83
2022/06/19 05:17:53;;;;;;;14.83;11.70;;;;;;;16.83;100.00;99353.69;4975115;28;20160;-85
2022/06/19 05:20:19;;;;;;;13.83;11.47;;;;;;;18.47;100.00;99622.75;4974314;28;20613;-83
2022/06/19 05:22:44;;;;;;;15.90;12.10;;;;;;;17.34;100.00;99412.56;4973832;28;20168;-85
2022/06/19 05:25:11;;;;;;;13.00;10.73;;;;;;;17.90;100.00;99474.09;4956957;28;20176;-85
2022/06/19 05:27:40;;;;;;;13.50;10.90;;;;;;;19.13;100.00;99708.47;4975127;28;20254;-85
2022/06/19 05:30:08;;;;;;;15.03;10.73;;;;;;;18.54;100.00;99632.34;4981504;28;20252;-85
2022/06/19 05:32:33;;;;;;;12.63;10.50;;;;;;;18.56;100.00;99594.75;4973502;28;20168;-86
2022/06/19 05:34:59;;;;;;;14.33;10.63;;;;;;;17.80;99.02;99465.38;4973655;28;20616;-90
2022/06/19 05:37:25;;;;;;;12.60;10.20;;;;;;;17.98;99.38;99513.50;4955577;28;20176;-86
2022/06/19 05:39:50;;;;;;;13.23;10.17;;;;;;;19.62;98.61;99717.72;4973759;28;20168;-84
2022/06/19 05:42:16;;;;;;;12.93;10.73;;;;;;;19.95;97.98;99727.53;4973753;28;20640;-87
2022/06/19 05:44:41;;;;;;;14.53;11.10;;;;;;;17.11;96.83;99210.06;4974200;28;20259;-85
2022/06/19 05:47:07;;;;;;;13.23;11.20;;;;;;;17.24;96.15;99249.50;4973217;28;20164;-85
2022/06/19 05:49:34;;;;;;;13.33;11.37;;;;;;;19.67;98.89;99664.69;4956274;28;20229;-86
2022/06/19 05:52:00;;;;;;;13.43;10.77;;;;;;;18.49;97.28;99431.38;4977738;28;20156;-87
2022/06/19 05:54:27;;;;;;;14.17;10.33;;;;;;;19.19;94.38;99498.09;4974793;28;20164;-85
2022/06/19 05:56:53;;;;;;;14.80;11.23;;;;;;;19.23;94.27;99492.13;4968848;28;20203;-85
2022/06/19 05:59:18;;;;;;;13.57;10.93;;;;;;;18.76;93.44;99395.84;4974131;28;20171;-85
2022/06/19 06:01:44;;;;;;;12.30;10.20;;;;;;;20.53;92.08;99734.16;4973540;28;20223;-85
2022/06/19 06:04:09;;;;;;;9.57;8.50;;;;;;;18.85;90.27;99468.59;4972143;28;20271;-85
2022/06/19 06:06:35;;;;;;;10.60;9.33;;;;;;;19.14;88.69;99419.31;4978753;28;20172;-85
2022/06/19 06:09:01;;;;;;;10.23;8.60;;;;;;;20.37;87.30;99609.72;4962830;28;20169;-85
2022/06/19 06:11:26;;;;;;;10.73;9.10;;;;;;;21.18;88.27;99734.72;4963157;28;20168;-84
2022/06/19 06:13:52;;;;;;;10.67;8.43;;;;;;;19.62;88.41;99513.94;4964070;28;20235;-85
2022/06/19 06:16:20;;;;;;;11.27;8.90;;;;;;;21.11;89.01;99735.53;4963250;28;20196;-85
2022/06/19 06:18:45;;;;;;;12.03;9.03;;;;;;;19.82;88.37;99479.00;4963871;28;20168;-85
2022/06/19 06:21:15;;;;;;;13.53;9.30;;;;;;;20.32;86.86;99505.13;4963788;28;20165;-91
2022/06/19 06:23:41;;;;;;;11.67;9.40;;;;;;;20.90;88.46;99615.25;4970278;28;20223;-85
2022/06/19 06:26:18;;;;;;;11.47;9.47;;;;;;;21.70;86.84;99728.97;4972950;28;20165;-86
2022/06/19 06:28:46;;;;;;;11.37;8.03;;;;;;;20.77;84.55;99517.34;4972071;28;20554;-85
2022/06/19 06:31:13;;;;;;;11.30;8.37;;;;;;;22.86;81.94;99733.59;4958266;28;20180;-84
2022/06/19 06:33:39;;;;;;;10.93;8.80;;;;;;;22.70;80.52;99677.66;4984534;28;20211;-84
2022/06/19 06:36:04;;;;;;;11.63;9.30;;;;;;;22.21;81.87;99660.41;4988783;28;20200;-86
2022/06/19 06:38:30;;;;;;;10.07;8.40;;;;;;;19.56;82.80;99255.34;4999194;28;20207;-86
2022/06/19 06:40:56;;;;;;;9.93;8.60;;;;;;;21.95;82.88;99592.50;5060799;23;20348;-86
2022/06/19 06:43:22;;;;;;;12.70;9.10;;;;;;;22.06;81.67;99563.25;5024981;28;20163;-86
2022/06/19 06:45:48;;;;;;;10.00;7.67;;;;;;;21.32;80.00;99534.75;5023590;28;20171;-86
2022/06/19 06:48:14;;;;;;;8.53;7.30;;;;;;;22.25;79.23;99659.53;5017275;28;20212;-87
2022/06/19 06:50:41;;;;;;;8.60;7.70;;;;;;;22.13;78.93;99584.75;5016247;28;20171;-86
2022/06/19 06:53:08;;;;;;;9.47;8.30;;;;;;;22.91;79.88;99713.78;5016799;28;20198;-86
2022/06/19 06:55:38;;;;;;;12.20;7.83;;;;;;;22.82;79.34;99620.84;5018875;28;20178;-87
2022/06/19 06:58:04;;;;;;;10.57;8.20;;;;;;;21.49;81.30;99442.91;5015400;28;20171;-87
2022/06/19 07:00:29;;;;;;;9.73;8.47;;;;;;;22.95;79.65;99708.63;5014738;28;20557;-87
2022/06/19 07:02:55;;;;;;;11.43;8.50;;;;;;;21.49;79.52;99434.31;5014429;28;20181;-86
2022/06/19 07:05:22;;;;;;;11.77;8.90;;;;;;;22.01;79.73;99473.88;5015391;28;20205;-86
2022/06/19 07:07:47;;;;;;;12.63;8.93;;;;;;;23.26;78.99;99676.72;5014319;28;20613;-86
2022/06/19 07:10:13;;;;;;;10.63;8.47;;;;;;;23.99;78.63;99722.09;5014508;28;20163;-86
2022/06/19 07:12:38;;;;;;;9.90;8.67;;;;;;;23.08;77.03;99596.66;5015372;28;20166;-87
2022/06/19 07:15:04;;;;;;;10.93;8.47;;;;;;;22.04;78.37;99456.69;5015359;28;20226;-87
2022/06/19 07:17:30;;;;;;;10.80;8.10;;;;;;;22.58;78.90;99583.88;5014942;28;20659;-88
2022/06/19 07:19:55;;;;;;;9.20;8.13;;;;;;;21.44;75.98;99339.03;5014158;28;20237;-85
2022/06/19 07:22:20;;;;;;;9.67;7.80;;;;;;;22.30;75.48;99402.47;5013878;28;20261;-88
2022/06/19 07:24:49;;;;;;;8.43;7.40;;;;;;;22.49;74.57;99417.00;5014107;28;20175;-88
2022/06/19 07:27:14;;;;;;;7.73;7.00;;;;;;;;;;5014359;28;20171;-88
2022/06/19 07:29:42;;;;;;;8.47;7.00;;;;;;;23.89;74.39;99728.19;5013079;28;20182;-87
2022/06/19 07:32:08;;;;;;;8.77;6.77;;;;;;;21.34;72.72;99284.94;5014309;28;20214;-88
2022/06/19 07:34:34;;;;;;;8.13;7.33;;;;;;;23.77;72.83;99652.38;5013976;28;20166;-88
2022/06/19 07:36:59;;;;;;;7.43;6.57;;;;;;;23.11;72.74;99468.38;5014713;28;20167;-88
2022/06/19 07:39:25;;;;;;;10.13;7.00;;;;;;;22.70;68.91;99331.78;5013882;28;20332;-87
2022/06/19 07:41:51;;;;;;;7.27;6.57;;;;;;;25.08;66.64;99625.47;5013031;28;20187;-86
2022/06/19 07:44:16;;;;;;;8.20;6.40;;;;;;;24.47;63.68;99451.78;5014109;28;20630;-87
2022/06/19 07:52:17;;;;;;;4.93;4.43;;;;;;;25.92;58.67;99742.03;5012681;28;20731;-88
2022/06/19 07:54:42;;;;;;;6.53;4.70;;;;;;;24.72;58.50;99584.41;5015721;28;20199;-87
2022/06/19 07:57:08;;;;;;;5.50;4.57;;;;;;;24.72;56.23;99540.38;5011682;28;20189;-87
2022/06/19 07:59:33;;;;;;;6.55;4.60;;;;;;;25.91;55.61;99618.38;5011331;28;20258;-87
2022/06/19 08:01:59;;;;;;;6.65;4.20;;;;;;;25.54;54.67;99493.56;5012109;28;20249;-87
2022/06/19 08:04:24;;;;;;;5.28;4.05;;;;;;;26.73;53.34;99708.81;5011442;28;20193;-87
2022/06/19 08:06:50;;;;;;;4.80;3.80;;;;;;;25.75;53.22;99585.75;5011333;28;20226;-86
2022/06/19 08:09:16;;;;;;;5.40;3.63;;;;;;;26.19;51.68;99640.47;4995381;28;20198;-87
2022/06/19 08:11:41;;;;;;;4.32;3.60;;;;;;;25.15;51.13;99422.41;5011433;28;20173;-88
2022/06/19 08:14:06;;;;;;;4.90;3.55;;;;;;;25.66;52.44;99638.59;5011172;28;20244;-87
2022/06/19 08:16:32;;;;;;;3.85;3.47;;;;;;;26.84;51.47;99680.09;5010973;28;20221;-88
2022/06/19 08:18:58;;;;;;;4.82;3.60;;;;;;;27.85;50.20;99737.13;5011477;28;20229;-88
2022/06/19 08:21:23;;;;;;;5.47;4.10;;;;;;;27.77;48.85;99638.38;5013518;28;20171;-87
2022/06/19 08:23:49;;;;;;;4.80;3.92;;;;;;;27.30;48.67;99553.56;5011105;28;20559;-87
2022/06/19 08:26:15;;;;;;;7.82;5.20;;;;;;;25.67;49.92;99317.88;5011350;28;20743;-87
2022/06/19 08:31:12;;;;;;;4.72;3.45;;;;;;;27.81;47.29;99660.88;5014251;28;20255;-87
2022/06/19 08:33:37;;;;;;;5.97;3.45;;;;;;;28.17;46.79;99726.06;5015453;28;20181;-87
2022/06/19 08:36:07;;;;;;;4.47;3.00;;;;;;;26.18;47.37;99498.56;5012998;28;20289;-87
2022/06/19 08:38:37;;;;;;;3.50;3.20;;;;;;;26.22;46.09;99422.38;5014860;28;20170;-87
2022/06/19 08:41:29;;;;;;;4.13;3.30;;;;;;;26.38;45.35;99371.84;5012868;28;20651;-87
2022/06/19 08:44:00;;;;;;;6.30;3.30;;;;;;;28.82;44.75;99724.50;5012795;28;20181;-87
2022/06/19 08:46:44;;;;;;;6.35;3.38;;;;;;;28.47;44.50;99707.13;5013398;28;20182;-86
2022/06/19 08:49:21;;;;;;;3.63;3.10;;;;;;;28.32;44.16;99702.28;5013098;28;20298;-87
2022/06/19 08:52:04;;;;;;;4.25;2.97;;;;;;;28.92;42.85;99699.94;5013197;28;20177;-87
2022/06/19 08:54:51;;;;;;;3.35;2.97;;;;;;;29.22;42.55;99696.56;5012373;28;20172;-86
2022/06/19 08:57:34;;;;;;;4.13;3.15;;;;;;;26.70;42.96;99220.50;5013122;28;20674;-88
2022/06/19 09:00:16;;;;;;;4.05;3.03;;;;;;;27.46;41.65;99387.66;5013236;28;20166;-87
2022/06/19 09:03:00;;;;;;;6.07;3.00;;;;;;;28.58;42.46;99619.97;5011646;28;20224;-87
2022/06/19 09:05:44;;;;;;;4.45;2.97;;;;;;;29.05;42.43;99629.19;5012386;28;20182;-87
2022/06/19 09:08:47;;;;;;;4.28;3.53;;;;;;;28.76;42.20;99694.25;5012264;28;20178;-87
2022/06/19 09:11:45;;;;;;;4.68;3.28;;;;;;;28.68;42.42;99690.97;5012472;28;20178;-88
2022/06/19 09:14:33;;;;;;;3.95;3.30;;;;;;;28.39;43.30;99683.84;4954936;28;20196;-89
2022/06/19 09:17:11;;;;;;;4.90;3.00;;;;;;;29.44;41.95;99684.63;4894516;29;20218;-89
2022/06/19 09:20:08;;;;;;;5.53;3.40;;;;;;;29.36;41.08;99600.50;4894567;29;20260;-88
2022/06/19 09:22:57;;;;;;;3.75;3.10;;;;;;;29.18;41.41;99679.22;4894663;29;20233;-88
2022/06/19 09:25:30;;;;;;;5.00;3.10;;;;;;;27.52;42.43;99486.34;4894567;29;20747;-88
2022/06/19 09:28:07;;;;;;;3.20;3.00;;;;;;;28.26;40.40;99510.56;4909801;29;20200;-88
2022/06/19 09:30:40;;;;;;;4.20;3.03;;;;;;;27.98;42.07;99552.03;4904431;29;20209;-87
2022/06/19 09:33:15;;;;;;;10.23;8.27;;;;;;;28.20;40.99;99530.69;4895955;29;20214;-88
2022/06/19 09:35:52;;;;;;;4.93;2.75;;;;;;;27.35;38.67;99301.22;4895535;29;20220;-88
2022/06/19 09:38:31;;;;;;;3.40;2.70;;;;;;;27.65;37.69;99388.03;4896216;29;20273;-88
2022/06/19 09:41:03;;;;;;;3.75;2.92;;;;;;;26.91;39.59;99377.69;4897885;29;20282;-87
2022/06/19 09:43:34;;;;;;;5.90;2.90;;;;;;;27.86;40.22;99548.84;4895196;29;20238;-87
2022/06/19 09:46:10;;;;;;;11.85;10.07;;;;;;;27.95;40.66;99616.31;4894470;29;20812;-87
2022/06/19 09:48:45;;;;;;;4.00;3.00;;;;;;;28.80;40.21;99671.56;4880507;29;20193;-86
2022/06/19 09:51:17;;;;;;;2.83;2.63;;;;;;;27.89;40.03;99521.00;4914230;29;20190;-87
2022/06/19 09:53:46;;;;;;;5.05;3.00;;;;;;;25.87;40.42;99180.88;4964768;28;20187;-87
2022/06/19 09:56:31;;;;;;;3.20;2.90;;;;;;;28.07;40.52;99522.34;5012188;28;20592;-87
2022/06/19 09:59:13;;;;;;;4.93;3.00;;;;;;;29.12;39.86;99653.31;5012030;28;20533;-87
2022/06/19 10:01:42;;;;;;;3.97;3.00;;;;;;;27.07;40.18;99419.75;5012576;28;20651;-86
2022/06/19 10:04:36;;;;;;;4.07;2.90;;;;;;;27.89;41.06;99655.47;5011961;28;20201;-86
2022/06/19 10:07:09;;;;;;;6.20;3.03;;;;;;;28.08;41.35;99649.88;4974724;28;20191;-89
2022/06/19 10:09:41;;;;;;;4.03;3.10;;;;;;;28.21;40.33;99568.84;4975223;28;20215;-86
2022/06/19 10:12:17;;;;;;;4.30;3.03;;;;;;;28.37;41.39;99645.72;4974967;28;20622;-86
2022/06/19 10:14:47;;;;;;;4.78;3.30;;;;;;;28.49;41.46;99622.81;4974450;28;20176;-86
2022/06/19 10:17:27;;;;;;;3.55;3.10;;;;;;;28.87;41.15;99636.66;4974472;28;20635;-86
2022/06/19 10:20:02;;;;;;;3.50;3.20;;;;;;;29.33;40.76;99631.91;4974766;28;20202;-86
2022/06/19 10:23:00;;;;;;;4.93;3.30;;;;;;;29.52;39.82;99630.47;4989373;28;20173;-86
2022/06/19 10:25:31;;;;;;;3.92;3.00;;;;;;;29.83;38.12;99624.34;4920498;29;20250;-86
2022/06/19 10:28:03;;;;;;;3.47;2.90;;;;;;;29.48;39.13;99630.59;4910345;29;20207;-86
2022/06/19 10:30:35;;;;;;;4.03;3.20;;;;;;;29.37;39.37;99635.25;4906187;29;20665;-86
2022/06/19 10:33:41;;;;;;;3.97;2.90;;;;;;;29.81;39.29;99632.22;4898931;29;20655;-87
2022/06/19 10:36:25;;;;;;;5.03;2.92;;;;;;;30.03;38.21;99583.66;4825035;29;20299;-86
2022/06/19 10:39:16;;;;;;;4.05;3.10;;;;;;;29.84;37.22;99530.31;4823906;29;20564;-86
2022/06/19 10:42:06;;;;;;;4.65;2.80;;;;;;;29.94;37.97;99530.88;4823566;29;20196;-86
2022/06/19 10:44:40;;;;;;;5.80;3.25;;;;;;;30.43;35.58;99525.75;4845135;29;20206;-86
2022/06/19 10:47:15;;;;;;;4.07;2.70;;;;;;;30.26;35.02;99533.25;4860341;29;20190;-87
2022/06/19 10:49:58;;;;;;;4.47;2.45;;;;;;;30.47;34.69;99610.09;4860111;29;20281;-86
2022/06/19 10:52:35;;;;;;;3.95;2.83;;;;;;;30.54;34.23;99591.56;4861988;29;20179;-87
2022/06/19 10:55:20;;;;;;;4.32;2.75;;;;;;;29.47;35.14;99396.66;4853118;29;20593;-85
2022/06/19 10:58:04;;;;;;;2.85;2.65;;;;;;;30.27;35.14;99603.72;4860006;29;20259;-86
2022/06/19 11:00:30;;;;;;;4.65;2.80;;;;;;;29.95;36.03;99566.50;4860229;29;20195;-86
2022/06/19 11:05:54;;;;;;;4.15;2.97;;;;;;;30.21;36.82;99606.56;4935388;29;20255;-86
2022/06/19 11:08:22;;;;;;;5.13;3.22;;;;;;;29.39;36.47;99456.94;4934881;29;20173;-86
2022/06/19 11:10:54;;;;;;;4.03;3.10;;;;;;;29.26;36.38;99447.75;4935065;29;20211;-86
2022/06/19 11:13:19;;;;;;;3.13;2.70;;;;;;;29.98;36.20;99588.16;4994883;28;20189;-85
2022/06/19 11:15:59;;;;;;;7.60;3.00;;;;;;;29.97;35.87;99598.69;5014318;28;20751;-88
2022/06/19 11:18:25;;;;;;;3.97;2.80;;;;;;;30.03;35.82;99593.22;5017079;28;20170;-88
2022/06/19 11:21:03;;;;;;;4.32;3.00;;;;;;;29.48;36.03;99592.31;5015448;28;20183;-86
2022/06/19 11:23:37;;;;;;;4.68;2.65;;;;;;;28.37;35.50;99388.72;5015717;28;20252;-88
2022/06/19 11:26:20;;;;;;;2.90;2.70;;;;;;;29.54;36.29;99584.28;5017292;28;20180;-86
2022/06/19 11:29:23;;;;;;;3.00;2.80;;;;;;;29.67;36.43;99583.00;5015062;28;20169;-86
2022/06/19 11:32:14;;;;;;;3.92;2.70;;;;;;;29.14;36.41;99518.53;4996883;28;20624;-87
2022/06/19 11:34:48;;;;;;;5.00;2.72;;;;;;;29.23;35.67;99586.09;4973437;28;20188;-86
2022/06/19 11:37:22;;;;;;;2.80;2.60;;;;;;;28.77;35.80;99505.69;4973893;28;20196;-86
2022/06/19 11:39:58;;;;;;;4.82;2.60;;;;;;;29.56;34.20;99431.13;4973366;28;20266;-88
2022/06/19 11:42:26;;;;;;;2.90;2.70;;;;;;;31.25;33.20;99588.16;4973248;28;20238;-86
2022/06/19 11:44:57;;;;;;;2.90;2.60;;;;;;;31.57;31.93;99488.31;4976100;28;20204;-85
2022/06/19 11:47:34;;;;;;;2.95;2.40;;;;;;;32.67;30.10;99571.94;4974281;28;20172;-87